Time;durP1;ratioP1;P1;durP2;ratioP2;P2;SDS_P1;SDS_P2;PMS_P1;PMS_P2;Temp;Humidity;BMP_temperature;BMP_pressure;BME280_temperature;BME280_humidity;BME280_pressure;Samples;Min_cycle;Max_cycle;Signal;HPM_P1;HPM_P2
2023/09/09 00:01:36;;;;;;;14.32;13.10;;;18.80;99.90;;;;;;5042730;28;20032;-73
2023/09/09 00:04:03;;;;;;;14.60;13.25;;;18.70;99.90;;;;;;5066432;28;20048;-73
2023/09/09 00:06:29;;;;;;;15.25;13.95;;;18.70;99.90;;;;;;5047206;28;20568;-73
2023/09/09 00:08:54;;;;;;;14.25;12.95;;;18.60;99.90;;;;;;5055557;28;20049;-73
2023/09/09 00:11:20;;;;;;;15.35;13.95;;;18.60;99.90;;;;;;5056089;28;20048;-73
2023/09/09 00:13:46;;;;;;;14.07;12.82;;;18.60;99.90;;;;;;5060830;28;20128;-72
2023/09/09 00:16:12;;;;;;;14.98;13.57;;;18.60;99.90;;;;;;5058557;28;20241;-74
2023/09/09 00:18:38;;;;;;;14.63;13.43;;;18.60;99.90;;;;;;5043371;28;20301;-73
2023/09/09 00:21:07;;;;;;;13.18;12.05;;;18.50;99.90;;;;;;5065798;28;20115;-73
2023/09/09 00:23:32;;;;;;;13.32;12.18;;;18.40;99.90;;;;;;5042468;28;20041;-72
2023/09/09 00:25:58;;;;;;;14.60;13.40;;;18.40;99.90;;;;;;5046432;28;20036;-73
2023/09/09 00:28:24;;;;;;;14.02;12.93;;;18.40;99.90;;;;;;5047312;28;20119;-73
2023/09/09 00:30:50;;;;;;;15.27;13.90;;;18.30;99.90;;;;;;5045025;28;20046;-73
2023/09/09 00:33:16;;;;;;;16.75;15.35;;;18.40;99.90;;;;;;5066476;28;20052;-73
2023/09/09 00:35:42;;;;;;;16.30;14.73;;;18.40;99.90;;;;;;5054323;28;20032;-73
2023/09/09 00:38:13;;;;;;;16.23;14.82;;;18.40;99.90;;;;;;5061232;28;20074;-73
2023/09/09 00:40:43;;;;;;;16.42;14.93;;;18.40;99.90;;;;;;5045991;28;20055;-73
2023/09/09 00:43:08;;;;;;;18.33;16.63;;;18.30;99.90;;;;;;5057255;28;20063;-73
2023/09/09 00:45:34;;;;;;;16.75;15.30;;;18.30;99.90;;;;;;5051426;28;20334;-73
2023/09/09 00:48:03;;;;;;;19.13;17.45;;;18.30;99.90;;;;;;5047494;28;20586;-72
2023/09/09 00:50:29;;;;;;;19.27;17.67;;;18.30;99.90;;;;;;5065356;28;20136;-72
2023/09/09 00:52:55;;;;;;;18.55;16.95;;;18.30;99.90;;;;;;5048852;28;20494;-73
2023/09/09 00:55:23;;;;;;;17.52;16.05;;;18.30;99.90;;;;;;5063063;28;20047;-73
2023/09/09 00:57:49;;;;;;;18.50;17.00;;;18.20;99.90;;;;;;5067511;28;20040;-72
2023/09/09 01:00:17;;;;;;;18.30;16.58;;;18.20;99.90;;;;;;5062873;28;20414;-72
2023/09/09 01:02:43;;;;;;;17.50;16.00;;;18.20;99.90;;;;;;5061265;28;20437;-72
2023/09/09 01:05:10;;;;;;;17.45;15.93;;;18.20;99.90;;;;;;5067674;28;20048;-73
2023/09/09 01:07:46;;;;;;;18.35;16.67;;;18.20;99.90;;;;;;5049601;28;20135;-73
2023/09/09 01:10:14;;;;;;;17.88;16.38;;;18.20;99.90;;;;;;5077363;28;20052;-73
2023/09/09 01:12:43;;;;;;;18.05;16.60;;;18.20;99.90;;;;;;5061928;28;20128;-72
2023/09/09 01:15:10;;;;;;;16.98;15.68;;;18.20;99.90;;;;;;5049609;28;20086;-72
2023/09/09 01:17:39;;;;;;;16.65;15.32;;;18.10;99.90;;;;;;5049462;28;20422;-73
2023/09/09 01:20:09;;;;;;;18.52;16.83;;;18.10;99.90;;;;;;5059773;28;20033;-72
2023/09/09 01:22:37;;;;;;;17.20;15.80;;;18.10;99.90;;;;;;5067041;28;20585;-73
2023/09/09 01:25:06;;;;;;;19.00;17.48;;;18.10;99.90;;;;;;5061080;28;20049;-73
2023/09/09 01:27:32;;;;;;;18.58;16.98;;;18.00;99.90;;;;;;5063750;28;20086;-72
2023/09/09 01:29:59;;;;;;;17.08;15.68;;;18.00;99.90;;;;;;5065026;28;20099;-73
2023/09/09 01:32:25;;;;;;;22.58;20.55;;;18.00;99.90;;;;;;5044263;28;20040;-73
2023/09/09 01:34:51;;;;;;;20.70;18.85;;;18.00;99.90;;;;;;5063981;28;20048;-72
2023/09/09 01:37:17;;;;;;;20.65;18.90;;;18.00;99.90;;;;;;5064993;28;20041;-72
2023/09/09 01:39:43;;;;;;;18.38;16.88;;;18.00;99.90;;;;;;5061688;28;20047;-73
2023/09/09 01:42:08;;;;;;;17.48;16.05;;;18.00;99.90;;;;;;5064641;28;20494;-73
2023/09/09 01:44:34;;;;;;;20.05;18.25;;;18.00;99.90;;;;;;5062169;28;20127;-73
2023/09/09 01:47:00;;;;;;;23.52;21.42;;;18.00;99.90;;;;;;5072933;28;20535;-72
2023/09/09 01:49:26;;;;;;;20.25;18.58;;;18.00;99.90;;;;;;5063116;28;20048;-73
2023/09/09 01:51:51;;;;;;;22.10;20.20;;;18.00;99.90;;;;;;5061353;28;20032;-73
2023/09/09 01:54:17;;;;;;;21.92;19.98;;;18.00;99.90;;;;;;5065553;28;20052;-73
2023/09/09 01:56:43;;;;;;;20.73;18.92;;;18.00;99.90;;;;;;5047140;28;20036;-73
2023/09/09 01:59:11;;;;;;;27.73;25.42;;;17.90;99.90;;;;;;5063428;28;20052;-72
2023/09/09 02:01:37;;;;;;;23.33;21.30;;;17.90;99.90;;;;;;5074664;28;20067;-73
2023/09/09 02:04:03;;;;;;;21.27;19.38;;;17.90;99.90;;;;;;5057190;28;20117;-73
2023/09/09 02:06:28;;;;;;;20.60;18.63;;;17.80;99.90;;;;;;5061006;28;20049;-73
2023/09/09 02:08:54;;;;;;;16.65;15.25;;;17.80;99.90;;;;;;5055238;28;20491;-74
2023/09/09 02:11:20;;;;;;;17.65;16.25;;;17.70;99.90;;;;;;5051862;28;20048;-73
2023/09/09 02:13:46;;;;;;;18.05;16.35;;;17.70;99.90;;;;;;5052546;28;20492;-72
2023/09/09 02:16:11;;;;;;;17.58;16.02;;;17.60;99.90;;;;;;5056214;28;20044;-73
2023/09/09 02:18:37;;;;;;;18.17;16.60;;;17.60;99.90;;;;;;5051019;28;20041;-73
2023/09/09 02:21:05;;;;;;;18.23;16.55;;;17.60;99.90;;;;;;5053206;28;20094;-73
2023/09/09 02:23:31;;;;;;;18.42;17.02;;;17.60;99.90;;;;;;5036141;28;20098;-73
2023/09/09 02:25:57;;;;;;;17.48;15.98;;;17.60;99.90;;;;;;5064554;28;20492;-73
2023/09/09 02:28:23;;;;;;;16.70;15.27;;;17.60;99.90;;;;;;5055753;28;20041;-73
2023/09/09 02:30:49;;;;;;;28.23;25.67;;;17.50;99.90;;;;;;5045454;28;20052;-73
2023/09/09 02:33:15;;;;;;;18.67;17.20;;;17.60;99.90;;;;;;5051244;28;20060;-73
2023/09/09 02:35:44;;;;;;;23.10;21.23;;;17.50;99.90;;;;;;5051714;28;20056;-73
2023/09/09 02:38:10;;;;;;;23.80;21.55;;;17.50;99.90;;;;;;5068338;28;20564;-73
2023/09/09 02:40:36;;;;;;;23.60;21.52;;;17.60;99.90;;;;;;5064772;28;20037;-73
2023/09/09 02:43:02;;;;;;;23.48;21.38;;;17.50;99.90;;;;;;5046694;28;20526;-73
2023/09/09 02:45:28;;;;;;;20.55;18.75;;;17.50;99.90;;;;;;5059161;28;20560;-73
2023/09/09 02:47:54;;;;;;;19.98;18.10;;;17.50;99.90;;;;;;5060836;28;20048;-72
2023/09/09 02:50:19;;;;;;;20.83;18.92;;;17.50;99.90;;;;;;5055790;28;20041;-72
2023/09/09 02:52:48;;;;;;;19.52;17.90;;;17.50;99.90;;;;;;5047938;28;20032;-73
2023/09/09 02:55:14;;;;;;;22.10;20.20;;;17.50;99.90;;;;;;5034945;28;20057;-73
2023/09/09 02:57:48;;;;;;;26.52;24.27;;;17.50;99.90;;;;;;5042925;28;20033;-73
2023/09/09 03:00:15;;;;;;;27.27;24.88;;;17.50;99.90;;;;;;5057585;28;20051;-72
2023/09/09 03:02:42;;;;;;;27.73;25.40;;;17.50;99.90;;;;;;5061322;28;20047;-73
2023/09/09 03:05:11;;;;;;;25.73;23.42;;;17.50;99.90;;;;;;5048849;28;20045;-73
2023/09/09 03:07:37;;;;;;;26.60;24.30;;;17.40;99.90;;;;;;5055339;28;20119;-73
2023/09/09 03:10:04;;;;;;;26.25;23.73;;;17.40;99.90;;;;;;5051552;28;20041;-73
2023/09/09 03:12:30;;;;;;;27.52;25.15;;;17.40;99.90;;;;;;5061481;28;20060;-73
2023/09/09 03:14:56;;;;;;;27.30;24.88;;;17.40;99.90;;;;;;5056879;28;20041;-73
2023/09/09 03:17:21;;;;;;;25.90;23.60;;;17.40;99.90;;;;;;5061775;28;20040;-72
2023/09/09 03:19:47;;;;;;;27.60;24.92;;;17.40;99.90;;;;;;5077957;28;20040;-73
2023/09/09 03:22:13;;;;;;;26.88;24.35;;;17.40;99.90;;;;;;5060469;28;20394;-73
2023/09/09 03:24:38;;;;;;;27.90;25.38;;;17.40;99.90;;;;;;5063949;28;20048;-73
2023/09/09 03:27:04;;;;;;;27.73;25.35;;;17.40;99.90;;;;;;5049133;28;20606;-73
2023/09/09 03:29:30;;;;;;;25.73;23.33;;;17.40;99.90;;;;;;5063969;28;20051;-73
2023/09/09 03:31:56;;;;;;;26.67;24.27;;;17.40;99.90;;;;;;5062272;28;20036;-73
2023/09/09 03:34:22;;;;;;;27.20;24.90;;;17.40;99.90;;;;;;5052226;28;20098;-73
2023/09/09 03:36:47;;;;;;;33.17;29.88;;;17.40;99.90;;;;;;5050914;28;20499;-73
2023/09/09 03:39:13;;;;;;;32.95;30.00;;;17.50;99.90;;;;;;5058417;28;20044;-73
2023/09/09 03:41:39;;;;;;;34.47;31.45;;;17.50;99.90;;;;;;5051510;28;20531;-73
2023/09/09 03:44:05;;;;;;;35.75;32.55;;;17.40;99.90;;;;;;5056865;28;20119;-73
2023/09/09 03:46:31;;;;;;;37.60;34.22;;;17.40;99.90;;;;;;5044429;28;20202;-73
2023/09/09 03:48:57;;;;;;;38.53;35.08;;;17.40;99.90;;;;;;5053812;28;20505;-73
2023/09/09 03:51:23;;;;;;;37.05;33.70;;;17.40;99.90;;;;;;5052528;28;20048;-73
2023/09/09 03:53:48;;;;;;;35.55;32.35;;;17.40;99.90;;;;;;5049361;28;20048;-73
2023/09/09 03:56:18;;;;;;;34.60;31.27;;;17.50;99.90;;;;;;5051216;28;20055;-73
2023/09/09 03:58:44;;;;;;;36.15;33.05;;;17.50;99.90;;;;;;5062742;28;20055;-73
2023/09/09 04:01:12;;;;;;;36.58;33.28;;;17.60;99.90;;;;;;5061208;28;20036;-73
2023/09/09 04:03:38;;;;;;;36.25;33.22;;;17.50;99.90;;;;;;5053204;28;20041;-73
2023/09/09 04:06:07;;;;;;;35.42;32.22;;;17.50;99.90;;;;;;5046369;28;20041;-73
2023/09/09 04:08:33;;;;;;;39.15;35.55;;;17.50;99.90;;;;;;5045504;28;20470;-73
2023/09/09 04:10:59;;;;;;;39.25;35.70;;;17.50;99.90;;;;;;5054935;28;20422;-73
2023/09/09 04:13:25;;;;;;;43.00;39.20;;;17.50;99.90;;;;;;5047576;28;20045;-73
2023/09/09 04:15:56;;;;;;;40.20;36.60;;;17.50;99.90;;;;;;5060238;28;20133;-73
2023/09/09 04:18:26;;;;;;;40.58;37.00;;;17.60;99.90;;;;;;5056456;28;20044;-73
2023/09/09 04:20:52;;;;;;;41.40;37.60;;;17.60;99.90;;;;;;5044016;28;20049;-73
2023/09/09 04:23:18;;;;;;;42.47;38.65;;;17.60;99.90;;;;;;5055190;28;20052;-73
2023/09/09 04:25:45;;;;;;;41.97;38.35;;;17.60;99.90;;;;;;5061368;28;20518;-73
2023/09/09 04:28:12;;;;;;;39.85;36.13;;;17.60;99.90;;;;;;5053065;28;20048;-73
2023/09/09 04:30:38;;;;;;;46.15;41.95;;;17.60;99.90;;;;;;5043538;28;20111;-73
2023/09/09 04:33:11;;;;;;;43.05;39.15;;;17.60;99.90;;;;;;5043728;28;20037;-73
2023/09/09 04:35:42;;;;;;;41.30;37.50;;;17.60;99.90;;;;;;5056608;28;20248;-73
2023/09/09 04:38:14;;;;;;;38.75;35.35;;;17.60;99.90;;;;;;5056959;28;20036;-73
2023/09/09 04:40:40;;;;;;;40.65;37.05;;;17.60;99.90;;;;;;5050731;28;20047;-73
2023/09/09 04:43:07;;;;;;;41.50;37.72;;;17.60;99.90;;;;;;5033057;28;20045;-74
2023/09/09 04:45:32;;;;;;;41.40;37.90;;;17.60;99.90;;;;;;5052615;28;20037;-73
2023/09/09 04:47:58;;;;;;;46.83;42.72;;;17.50;99.90;;;;;;5048929;28;20578;-73
2023/09/09 04:50:24;;;;;;;44.83;40.70;;;17.50;99.90;;;;;;5050154;28;20041;-73
2023/09/09 04:52:50;;;;;;;41.58;37.72;;;17.50;99.90;;;;;;5050444;28;20040;-73
2023/09/09 04:55:16;;;;;;;45.00;40.90;;;17.30;99.90;;;;;;5054159;28;20055;-73
2023/09/09 04:57:42;;;;;;;47.20;42.88;;;17.40;99.90;;;;;;5046615;28;20337;-73
2023/09/09 05:00:08;;;;;;;46.88;42.58;;;17.40;99.90;;;;;;5063242;28;20111;-73
2023/09/09 05:02:34;;;;;;;45.90;41.83;;;17.40;99.90;;;;;;5051177;28;20044;-73
2023/09/09 05:05:04;;;;;;;47.92;43.63;;;17.50;99.90;;;;;;5057165;28;20040;-73
2023/09/09 05:07:31;;;;;;;45.33;41.13;;;17.40;99.90;;;;;;5062065;28;20041;-73
2023/09/09 05:09:57;;;;;;;53.03;47.88;;;17.40;99.90;;;;;;5060980;28;20045;-73
2023/09/09 05:12:23;;;;;;;60.28;54.20;;;17.40;99.90;;;;;;5064503;28;20399;-73
2023/09/09 05:14:49;;;;;;;48.25;44.05;;;17.40;99.90;;;;;;5062700;28;20060;-73
2023/09/09 05:17:17;;;;;;;47.75;43.42;;;17.40;99.90;;;;;;5048132;28;20048;-73
2023/09/09 05:19:43;;;;;;;55.47;50.05;;;17.40;99.90;;;;;;5053560;28;20106;-73
2023/09/09 05:22:09;;;;;;;47.20;43.00;;;17.40;99.90;;;;;;5057401;28;20032;-73
2023/09/09 05:24:34;;;;;;;53.33;48.35;;;17.40;99.90;;;;;;5054259;28;20440;-73
2023/09/09 05:27:00;;;;;;;52.15;47.20;;;17.40;99.90;;;;;;5062636;28;20201;-73
2023/09/09 05:29:26;;;;;;;49.15;44.72;;;17.40;99.90;;;;;;5042887;28;20226;-73
2023/09/09 05:31:51;;;;;;;55.90;50.85;;;17.50;99.90;;;;;;5052236;28;20072;-73
2023/09/09 05:34:17;;;;;;;51.83;47.00;;;17.50;99.90;;;;;;5046202;28;20053;-73
2023/09/09 05:36:43;;;;;;;50.00;45.70;;;17.50;99.90;;;;;;5049442;28;20617;-73
2023/09/09 05:39:08;;;;;;;65.63;59.05;;;17.50;99.90;;;;;;5049715;28;20044;-73
2023/09/09 05:41:34;;;;;;;52.58;47.92;;;17.60;99.90;;;;;;5065360;28;20040;-73
2023/09/09 05:44:00;;;;;;;52.15;47.38;;;17.60;99.90;;;;;;5057997;28;20080;-73
2023/09/09 05:46:26;;;;;;;53.80;48.80;;;17.60;99.90;;;;;;5059973;28;20057;-73
2023/09/09 05:48:52;;;;;;;51.55;46.65;;;17.60;99.90;;;;;;5054320;28;20037;-74
2023/09/09 05:51:18;;;;;;;57.03;51.63;;;17.70;99.90;;;;;;5041931;28;20057;-73
2023/09/09 05:53:43;;;;;;;50.05;45.75;;;17.70;99.90;;;;;;5052684;28;20049;-73
2023/09/09 05:56:09;;;;;;;60.33;54.45;;;17.70;99.90;;;;;;5058719;28;20162;-73
2023/09/09 05:58:35;;;;;;;58.78;53.53;;;17.80;99.90;;;;;;5041626;28;20372;-73
2023/09/09 06:01:02;;;;;;;49.53;44.95;;;17.80;99.90;;;;;;5047229;28;20447;-73
2023/09/09 06:03:29;;;;;;;47.85;43.33;;;17.90;99.90;;;;;;5041610;28;20045;-73
2023/09/09 06:05:54;;;;;;;57.10;52.10;;;17.90;99.90;;;;;;5055147;28;20127;-73
2023/09/09 06:08:20;;;;;;;48.53;44.33;;;18.00;99.90;;;;;;5044505;28;20083;-73
2023/09/09 06:10:46;;;;;;;52.78;47.97;;;18.00;99.90;;;;;;5072445;28;20059;-73
2023/09/09 06:13:15;;;;;;;52.80;48.10;;;18.10;99.90;;;;;;5059245;28;20047;-73
2023/09/09 06:15:40;;;;;;;56.33;51.17;;;18.10;99.90;;;;;;5060517;28;20498;-73
2023/09/09 06:18:06;;;;;;;56.42;51.22;;;18.20;99.90;;;;;;5049293;28;20140;-73
2023/09/09 06:20:32;;;;;;;49.92;45.53;;;18.20;99.90;;;;;;5054786;28;20087;-73
2023/09/09 06:22:58;;;;;;;47.67;43.47;;;18.30;99.90;;;;;;5067301;28;20398;-73
2023/09/09 06:25:24;;;;;;;50.75;46.22;;;18.30;99.90;;;;;;5065149;28;20055;-73
2023/09/09 06:27:50;;;;;;;57.47;52.42;;;18.30;99.90;;;;;;5064518;28;20045;-74
2023/09/09 06:30:15;;;;;;;54.65;49.80;;;18.40;99.90;;;;;;5062946;28;20056;-73
2023/09/09 06:32:41;;;;;;;56.95;51.65;;;18.40;99.90;;;;;;5057208;28;20175;-73
2023/09/09 06:35:07;;;;;;;54.13;49.28;;;18.50;99.90;;;;;;5062374;28;20131;-73
2023/09/09 06:37:33;;;;;;;51.97;47.30;;;18.50;99.90;;;;;;5048378;28;20056;-73
2023/09/09 06:39:59;;;;;;;53.78;49.05;;;18.60;99.90;;;;;;5055936;28;20045;-74
2023/09/09 06:42:24;;;;;;;54.10;49.40;;;18.60;99.90;;;;;;5042343;28;20458;-74
2023/09/09 06:44:50;;;;;;;57.83;52.80;;;18.70;99.90;;;;;;5045201;28;20060;-73
2023/09/09 06:47:16;;;;;;;54.72;49.78;;;18.70;99.90;;;;;;5059196;28;20052;-73
2023/09/09 06:49:41;;;;;;;57.50;52.60;;;18.70;99.90;;;;;;5060317;28;20032;-73
2023/09/09 06:52:07;;;;;;;52.85;48.28;;;18.80;99.90;;;;;;5059576;28;20048;-73
2023/09/09 06:54:33;;;;;;;51.55;47.05;;;18.80;99.90;;;;;;5054345;28;20113;-73
2023/09/09 06:56:59;;;;;;;54.20;49.35;;;18.90;99.90;;;;;;5049398;28;20048;-73
2023/09/09 06:59:25;;;;;;;51.97;47.28;;;18.90;99.90;;;;;;5041431;28;20390;-74
2023/09/09 07:01:51;;;;;;;52.90;48.03;;;19.00;99.90;;;;;;5058213;28;20044;-74
2023/09/09 07:04:19;;;;;;;53.65;49.03;;;19.00;99.90;;;;;;5058627;28;20131;-73
2023/09/09 07:06:45;;;;;;;48.80;44.53;;;19.10;99.90;;;;;;5087478;28;20123;-74
2023/09/09 07:09:11;;;;;;;50.03;45.63;;;19.20;99.90;;;;;;5073176;28;20123;-73
2023/09/09 07:11:37;;;;;;;50.95;46.45;;;19.20;99.90;;;;;;5045529;28;20128;-74
2023/09/09 07:14:03;;;;;;;48.28;44.05;;;19.40;99.90;;;;;;5071384;28;20043;-73
2023/09/09 07:16:32;;;;;;;47.53;43.53;;;19.50;99.90;;;;;;5069924;28;20040;-74
2023/09/09 07:18:58;;;;;;;49.58;45.10;;;19.60;99.90;;;;;;5062362;28;20047;-74
2023/09/09 07:21:27;;;;;;;51.70;47.25;;;19.70;99.90;;;;;;5039510;28;20028;-74
2023/09/09 07:23:53;;;;;;;48.45;44.10;;;19.80;99.90;;;;;;5063775;28;20036;-73
2023/09/09 07:26:19;;;;;;;49.80;45.45;;;19.90;99.90;;;;;;5047768;28;20063;-73
2023/09/09 07:28:45;;;;;;;50.58;46.08;;;20.00;99.90;;;;;;5040985;28;20408;-73
2023/09/09 07:31:11;;;;;;;47.53;43.30;;;20.20;99.90;;;;;;5055979;28;20072;-73
2023/09/09 07:33:37;;;;;;;53.17;48.70;;;20.30;99.90;;;;;;5053534;28;20102;-74
2023/09/09 07:36:03;;;;;;;50.90;46.42;;;20.40;99.90;;;;;;5059041;28;20033;-74
2023/09/09 07:38:28;;;;;;;49.10;44.70;;;20.50;99.90;;;;;;5060524;28;20083;-74
2023/09/09 07:40:58;;;;;;;50.72;46.42;;;20.70;99.90;;;;;;5043333;28;20573;-73
2023/09/09 07:43:24;;;;;;;48.78;44.53;;;20.80;99.90;;;;;;5066782;28;20056;-74
2023/09/09 07:45:51;;;;;;;48.58;44.38;;;21.00;99.90;;;;;;5074777;28;20044;-74
2023/09/09 07:48:21;;;;;;;48.17;44.00;;;21.10;99.90;;;;;;5055688;28;20105;-74
2023/09/09 07:50:59;;;;;;;49.78;45.67;;;21.30;99.90;;;;;;5059865;28;20048;-74
2023/09/09 07:53:24;;;;;;;49.10;44.88;;;21.50;99.90;;;;;;5061317;28;20072;-74
2023/09/09 07:55:51;;;;;;;43.60;39.80;;;21.60;99.90;;;;;;5062397;28;20536;-74
2023/09/09 07:58:18;;;;;;;47.35;43.40;;;21.70;99.90;;;;;;5067350;28;20047;-74
2023/09/09 08:00:44;;;;;;;44.28;40.65;;;21.80;99.90;;;;;;5059296;28;20446;-74
2023/09/09 08:03:11;;;;;;;46.20;42.22;;;22.10;99.90;;;;;;5057245;28;20051;-74
2023/09/09 08:05:38;;;;;;;47.92;43.85;;;22.20;99.90;;;;;;5041450;28;20510;-74
2023/09/09 08:08:05;;;;;;;49.95;45.72;;;22.40;99.90;;;;;;5059490;28;20036;-75
2023/09/09 08:10:31;;;;;;;44.10;40.13;;;22.60;99.90;;;;;;5057247;28;20114;-74
2023/09/09 08:12:57;;;;;;;50.45;46.03;;;22.80;99.90;;;;;;5058126;28;20032;-74
2023/09/09 08:15:23;;;;;;;51.38;46.88;;;22.90;99.90;;;;;;5042578;28;20051;-74
2023/09/09 08:17:49;;;;;;;43.97;40.00;;;23.00;99.90;;;;;;5055528;28;20036;-74
2023/09/09 08:20:14;;;;;;;50.95;46.55;;;23.20;99.90;;;;;;5056170;28;20037;-74
2023/09/09 08:22:40;;;;;;;50.15;45.78;;;23.30;99.90;;;;;;5065914;28;20482;-74
2023/09/09 08:25:06;;;;;;;48.95;44.65;;;23.50;99.90;;;;;;5057431;28;20040;-74
2023/09/09 08:27:32;;;;;;;47.88;43.65;;;23.60;99.90;;;;;;5048855;28;20056;-74
2023/09/09 08:29:58;;;;;;;51.13;46.22;;;23.70;99.90;;;;;;5060775;28;20029;-75
2023/09/09 08:32:24;;;;;;;51.22;46.83;;;23.80;99.90;;;;;;5058234;28;20063;-74
2023/09/09 08:34:54;;;;;;;47.78;43.83;;;24.00;99.90;;;;;;5056202;28;20137;-75
2023/09/09 08:37:19;;;;;;;;;;;24.10;99.90;;;;;;5060720;28;20112;-75
2023/09/09 08:39:45;;;;;;;50.38;46.00;;;24.10;99.90;;;;;;5056617;28;19921;-74
2023/09/09 08:42:28;;;;;;;51.95;47.15;;;24.30;99.90;;;;;;5047257;28;20483;-75
2023/09/09 08:45:17;;;;;;;51.22;46.70;;;24.40;99.90;;;;;;5058804;28;20040;-75
2023/09/09 08:47:44;;;;;;;51.35;46.95;;;24.50;99.90;;;;;;5054146;28;20130;-75
2023/09/09 08:50:13;;;;;;;53.25;48.63;;;24.70;99.90;;;;;;5042902;28;20175;-75
2023/09/09 08:52:43;;;;;;;48.77;44.50;;;24.90;99.90;;;;;;5053847;28;20123;-75
2023/09/09 08:55:10;;;;;;;50.50;46.05;;;24.90;99.90;;;;;;5061812;28;20525;-75
2023/09/09 08:57:36;;;;;;;48.92;44.65;;;25.00;99.90;;;;;;5041150;28;20060;-74
2023/09/09 09:00:05;;;;;;;46.78;42.83;;;25.10;99.90;;;;;;5062606;28;20032;-75
2023/09/09 09:02:33;;;;;;;48.10;43.88;;;25.20;99.90;;;;;;5095035;28;20093;-75
2023/09/09 09:04:59;;;;;;;48.75;44.28;;;25.30;99.90;;;;;;5059189;28;20052;-75
2023/09/09 09:07:27;;;;;;;51.80;47.33;;;25.40;99.90;;;;;;5055719;28;20068;-74
2023/09/09 09:09:54;;;;;;;50.38;46.15;;;25.50;99.90;;;;;;5061417;28;20080;-75
2023/09/09 09:12:21;;;;;;;49.85;45.63;;;25.60;99.90;;;;;;5058227;28;20048;-75
2023/09/09 09:14:50;;;;;;;51.65;47.28;;;25.70;99.90;;;;;;5062976;28;20115;-75
2023/09/09 09:17:20;;;;;;;47.55;43.55;;;25.80;99.90;;;;;;5052621;28;20036;-74
2023/09/09 09:19:46;;;;;;;50.30;46.15;;;25.90;99.90;;;;;;5058623;28;20045;-75
2023/09/09 09:22:14;;;;;;;48.35;44.05;;;26.00;99.90;;;;;;5066966;28;20044;-75
2023/09/09 09:24:45;;;;;;;48.90;44.50;;;26.10;99.90;;;;;;5046805;28;20485;-75
2023/09/09 09:27:13;;;;;;;47.67;43.50;;;26.10;99.90;;;;;;5059182;28;20037;-75
2023/09/09 09:29:45;;;;;;;48.90;44.65;;;26.20;99.90;;;;;;5062181;28;20060;-75
2023/09/09 09:32:12;;;;;;;46.63;42.53;;;26.30;99.90;;;;;;5061007;28;20036;-75
2023/09/09 09:34:38;;;;;;;42.22;38.72;;;26.40;99.90;;;;;;5059437;28;20175;-75
2023/09/09 09:37:11;;;;;;;46.30;42.30;;;26.40;99.90;;;;;;5061605;28;20040;-75
2023/09/09 09:39:38;;;;;;;41.13;37.38;;;26.50;99.90;;;;;;5058375;28;20057;-75
2023/09/09 09:42:04;;;;;;;42.28;38.65;;;26.50;99.90;;;;;;5072991;28;20044;-75
2023/09/09 09:44:30;;;;;;;42.47;38.78;;;26.60;99.90;;;;;;5060651;28;20047;-75
2023/09/09 09:47:01;;;;;;;36.88;33.67;;;26.70;99.90;;;;;;5058394;28;20057;-75
2023/09/09 09:49:48;;;;;;;37.13;33.92;;;26.80;99.90;;;;;;5066934;28;20097;-75
2023/09/09 09:52:23;;;;;;;34.08;30.90;;;26.90;99.90;;;;;;5059645;28;20040;-75
2023/09/09 09:54:53;;;;;;;29.20;26.70;;;26.90;99.90;;;;;;5049776;28;20740;-75
2023/09/09 09:57:20;;;;;;;;;;;26.90;99.90;;;;;;5060738;28;20477;-75
2023/09/09 09:59:46;;;;;;;30.65;28.15;;;27.00;99.90;;;;;;5058082;28;19981;-75
2023/09/09 10:02:14;;;;;;;31.75;28.70;;;27.10;99.90;;;;;;5062414;28;20032;-75
2023/09/09 10:04:47;;;;;;;27.27;24.90;;;27.20;99.90;;;;;;5058083;28;20518;-75
2023/09/09 10:07:19;;;;;;;25.73;23.63;;;27.30;99.90;;;;;;5062434;28;20055;-75
2023/09/09 10:09:55;;;;;;;23.60;21.77;;;27.40;99.90;;;;;;5040423;28;20142;-75
2023/09/09 10:12:33;;;;;;;23.58;21.48;;;27.50;99.90;;;;;;5055748;28;20485;-75
2023/09/09 10:15:01;;;;;;;25.88;23.67;;;27.50;99.90;;;;;;5061162;28;20048;-75
2023/09/09 10:17:29;;;;;;;24.27;22.17;;;27.60;99.90;;;;;;5054803;28;20049;-75
2023/09/09 10:19:55;;;;;;;22.67;20.75;;;27.70;99.90;;;;;;5043066;28;20160;-75
2023/09/09 10:22:21;;;;;;;21.95;19.92;;;27.70;99.90;;;;;;5044289;28;20052;-75
2023/09/09 10:24:49;;;;;;;18.67;17.20;;;27.80;99.90;;;;;;5061520;28;20055;-75
2023/09/09 10:27:17;;;;;;;20.17;18.30;;;27.80;99.90;;;;;;5052723;28;20124;-75
2023/09/09 10:29:43;;;;;;;21.15;19.25;;;27.90;99.90;;;;;;5064453;28;20490;-75
2023/09/09 10:32:11;;;;;;;21.50;19.50;;;28.00;99.90;;;;;;5044424;28;20088;-75
2023/09/09 10:34:39;;;;;;;22.83;20.92;;;28.00;99.90;;;;;;5045956;28;20092;-75
2023/09/09 10:37:09;;;;;;;20.90;18.85;;;28.10;99.90;;;;;;5065485;28;20459;-74
2023/09/09 10:39:35;;;;;;;22.58;20.27;;;28.10;99.90;;;;;;5087392;27;20105;-75
2023/09/09 10:42:04;;;;;;;17.95;16.42;;;28.20;99.90;;;;;;5060733;28;20037;-75
2023/09/09 10:44:30;;;;;;;23.90;21.87;;;28.20;99.90;;;;;;5042025;28;20167;-75
2023/09/09 10:46:56;;;;;;;22.00;20.02;;;28.20;99.90;;;;;;5066948;28;20381;-75
2023/09/09 10:49:29;;;;;;;21.38;19.50;;;28.30;99.90;;;;;;5064483;28;20699;-75
2023/09/09 10:51:55;;;;;;;21.50;19.58;;;28.40;99.90;;;;;;5046967;28;20055;-74
2023/09/09 10:54:23;;;;;;;22.50;20.55;;;28.40;99.90;;;;;;5045510;28;20406;-75
2023/09/09 10:56:51;;;;;;;26.95;24.48;;;28.50;99.90;;;;;;5057548;28;20051;-75
2023/09/09 10:59:23;;;;;;;22.58;20.55;;;28.50;99.90;;;;;;5042793;28;20593;-75
2023/09/09 11:02:11;;;;;;;21.88;20.08;;;28.50;99.90;;;;;;5055947;28;20053;-75
2023/09/09 11:04:39;;;;;;;21.83;19.73;;;28.50;99.90;;;;;;5062860;28;20131;-75
2023/09/09 11:07:12;;;;;;;20.58;18.77;;;28.50;99.90;;;;;;5058982;28;20305;-75
2023/09/09 11:09:38;;;;;;;20.65;18.77;;;28.60;99.90;;;;;;5046700;28;20040;-75
2023/09/09 11:12:16;;;;;;;20.67;18.75;;;28.60;99.90;;;;;;5056971;28;20148;-75
2023/09/09 11:14:56;;;;;;;23.55;21.45;;;28.70;99.90;;;;;;5042489;28;21953;-75
2023/09/09 11:17:22;;;;;;;24.33;22.35;;;28.80;99.90;;;;;;5059409;28;20049;-75
2023/09/09 11:19:49;;;;;;;22.50;20.50;;;28.80;99.90;;;;;;5058689;28;20426;-75
2023/09/09 11:22:15;;;;;;;16.77;15.23;;;28.80;99.90;;;;;;5060573;28;20095;-75
2023/09/09 11:24:44;;;;;;;18.98;17.27;;;28.80;99.90;;;;;;5058209;28;20064;-75
2023/09/09 11:27:11;;;;;;;17.20;15.65;;;28.90;99.90;;;;;;5093398;27;20047;-75
2023/09/09 11:29:37;;;;;;;20.30;18.45;;;29.00;99.90;;;;;;5062890;28;20076;-74
2023/09/09 11:32:07;;;;;;;19.83;18.25;;;29.00;99.90;;;;;;5059457;28;20117;-75
2023/09/09 11:34:33;;;;;;;17.63;15.65;;;29.00;99.90;;;;;;5056276;28;20762;-75
2023/09/09 11:37:11;;;;;;;18.48;15.05;;;29.10;99.90;;;;;;5061305;28;20052;-75
2023/09/09 11:39:40;;;;;;;17.92;16.33;;;29.20;99.90;;;;;;5042396;28;20105;-75
2023/09/09 11:42:06;;;;;;;16.52;15.05;;;29.20;99.90;;;;;;5061851;28;20066;-74
2023/09/09 11:44:39;;;;;;;18.05;16.35;;;29.20;99.90;;;;;;5055800;28;20084;-74
2023/09/09 11:47:05;;;;;;;13.18;11.95;;;29.30;99.90;;;;;;5058160;28;20056;-75
2023/09/09 11:49:31;;;;;;;14.75;13.38;;;29.30;99.90;;;;;;5039354;28;20145;-75
2023/09/09 11:51:58;;;;;;;13.85;12.63;;;29.30;99.90;;;;;;5056346;28;20037;-75
2023/09/09 11:54:24;;;;;;;16.15;14.75;;;29.30;99.90;;;;;;5044645;28;20518;-75
2023/09/09 11:56:50;;;;;;;17.10;14.32;;;29.30;99.90;;;;;;5043191;28;20076;-75
2023/09/09 11:59:16;;;;;;;14.00;12.68;;;29.30;99.90;;;;;;5055530;28;20048;-75
2023/09/09 12:01:43;;;;;;;17.17;12.15;;;29.20;99.90;;;;;;5065552;28;20041;-75
2023/09/09 12:04:13;;;;;;;12.88;10.25;;;29.20;99.90;;;;;;5062159;28;20048;-74
2023/09/09 12:06:47;;;;;;;14.70;10.50;;;29.20;99.90;;;;;;5042382;28;20053;-75
2023/09/09 12:09:14;;;;;;;11.32;10.23;;;29.20;99.90;;;;;;5058561;28;20101;-75
2023/09/09 12:11:41;;;;;;;10.10;9.10;;;29.20;99.90;;;;;;5055188;28;20495;-75
2023/09/09 12:14:09;;;;;;;10.52;9.52;;;29.20;99.90;;;;;;5058376;28;20038;-75
2023/09/09 12:16:36;;;;;;;10.52;9.55;;;29.30;99.90;;;;;;5059523;28;20052;-75
2023/09/09 12:19:02;;;;;;;14.00;9.70;;;29.30;99.90;;;;;;5045350;28;20538;-75
2023/09/09 12:21:29;;;;;;;10.18;9.18;;;29.40;99.90;;;;;;5036520;28;20044;-74
2023/09/09 12:24:00;;;;;;;10.43;9.38;;;29.30;99.90;;;;;;5078519;28;20489;-74
2023/09/09 12:26:26;;;;;;;9.27;7.57;;;29.30;99.90;;;;;;5064377;28;20045;-74
2023/09/09 12:29:12;;;;;;;9.40;8.00;;;29.30;99.90;;;;;;5061078;28;20501;-74